createdAt,value
2022-11-29T00:04:32.281Z,101148.31
2022-11-29T00:09:35.141Z,101149.25
2022-11-29T00:14:38.082Z,101143.22
2022-11-29T00:19:42.287Z,101140.66
2022-11-29T00:24:45.272Z,101143.69
2022-11-29T00:29:48.176Z,101148.03
2022-11-29T00:34:52.346Z,101145.47
2022-11-29T00:39:55.085Z,101143.84
2022-11-29T00:44:57.811Z,101150.78
2022-11-29T00:50:01.901Z,101151.97
2022-11-29T00:55:05.152Z,101146.53
2022-11-29T01:00:09.203Z,101150.28
2022-11-29T01:05:13.381Z,101149.69
2022-11-29T01:10:16.258Z,101150.44
2022-11-29T01:15:19.497Z,101159.81
2022-11-29T01:20:23.721Z,101155.13
2022-11-29T01:25:26.756Z,101157.84
2022-11-29T01:30:29.609Z,101152.56
2022-11-29T01:35:33.778Z,101160.09
2022-11-29T01:40:36.596Z,101156.19
2022-11-29T01:45:40.313Z,101161.00
2022-11-29T01:50:44.829Z,101158.44
2022-11-29T01:55:53.294Z,101167.75
2022-11-29T02:00:57.357Z,101172.13
2022-11-29T02:06:02.597Z,101172.88
2022-11-29T02:11:34.359Z,101167.59
2022-11-29T02:16:44.831Z,101174.94
2022-11-29T02:21:54.143Z,101173.47
2022-11-29T02:27:12.490Z,101182.81
2022-11-29T02:33:05.942Z,101173.59
2022-11-29T02:38:26.714Z,101181.16
2022-11-29T02:43:59.227Z,101182.25
2022-11-29T02:49:08.852Z,101191.44
2022-11-29T02:54:21.598Z,101192.78
2022-11-29T02:59:40.392Z,101192.34
2022-11-29T03:04:47.894Z,101185.25
2022-11-29T03:09:59.455Z,101199.72
2022-11-29T03:15:13.975Z,101209.63
2022-11-29T03:20:30.132Z,101210.44
2022-11-29T03:25:39.890Z,101218.13
2022-11-29T03:31:14.133Z,101219.63
2022-11-29T03:36:24.865Z,101217.53
2022-11-29T03:41:37.696Z,101225.50
2022-11-29T03:46:49.652Z,101223.06
2022-11-29T03:52:01.698Z,101233.50
2022-11-29T03:57:07.407Z,101233.03
2022-11-29T04:02:30.730Z,101235.75
2022-11-29T04:08:02.186Z,101239.38
2022-11-29T04:13:36.954Z,101234.41
2022-11-29T04:19:23.543Z,101235.47
2022-11-29T04:25:05.072Z,101251.44
2022-11-29T04:30:19.233Z,101259.72
2022-11-29T04:35:39.940Z,101263.03
2022-11-29T04:41:02.376Z,101271.03
2022-11-29T04:46:52.751Z,101272.41
2022-11-29T04:52:18.129Z,101273.03
2022-11-29T04:57:32.022Z,101280.41
2022-11-29T05:02:42.019Z,101286.16
2022-11-29T05:07:54.041Z,101279.53
2022-11-29T05:13:05.317Z,101289.78
2022-11-29T05:18:17.846Z,101284.31
2022-11-29T05:23:41.298Z,101287.63
2022-11-29T05:28:56.118Z,101298.47
2022-11-29T05:34:34.495Z,101307.66
2022-11-29T05:39:50.629Z,101314.00
2022-11-29T05:45:00.592Z,101315.31
2022-11-29T05:50:12.435Z,101316.03
2022-11-29T05:55:37.595Z,101323.28
2022-11-29T06:00:49.819Z,101327.03
2022-11-29T06:05:58.345Z,101337.38
2022-11-29T06:11:06.977Z,101345.22
2022-11-29T06:16:33.197Z,101355.34
2022-11-29T06:21:40.749Z,101355.97
2022-11-29T06:27:05.443Z,101361.84
2022-11-29T06:32:21.462Z,101367.78
2022-11-29T06:37:29.103Z,101380.59
2022-11-29T06:42:33.474Z,101382.66
2022-11-29T06:47:46.843Z,101385.09
2022-11-29T06:52:58.576Z,101384.38
2022-11-29T06:58:12.379Z,101387.00
2022-11-29T07:03:41.911Z,101398.53
2022-11-29T07:08:45.765Z,101401.38
2022-11-29T07:13:50.895Z,101406.13
2022-11-29T07:19:04.348Z,101411.72
2022-11-29T07:24:17.668Z,101415.59
2022-11-29T07:29:30.124Z,101421.97
2022-11-29T07:34:42.723Z,101424.06
2022-11-29T07:39:52.761Z,101418.19
2022-11-29T07:45:05.442Z,101426.09
2022-11-29T07:50:09.611Z,101428.34
2022-11-29T07:55:18.431Z,101435.63
2022-11-29T08:00:23.763Z,101438.03
2022-11-29T08:05:27.104Z,101438.56
2022-11-29T08:10:53.833Z,101443.72
2022-11-29T08:21:29.159Z,101436.66
2022-11-29T08:26:32.186Z,101437.06
2022-11-29T08:31:35.410Z,101447.78
2022-11-29T08:36:39.583Z,101441.34
2022-11-29T08:41:42.353Z,101445.09
2022-11-29T08:47:03.033Z,101453.84
2022-11-29T08:52:27.251Z,101459.72
2022-11-29T08:57:45.210Z,101458.56
2022-11-29T09:02:48.156Z,101465.50
2022-11-29T09:07:52.521Z,101470.91
2022-11-29T09:12:56.243Z,101473.69
2022-11-29T09:17:59.261Z,101481.38
2022-11-29T09:23:03.595Z,101481.31
2022-11-29T09:28:07.345Z,101483.31
2022-11-29T09:33:10.258Z,101489.53
2022-11-29T09:38:15.333Z,101500.16
2022-11-29T09:43:28.845Z,101499.53
2022-11-29T09:48:52.559Z,101512.72
2022-11-29T09:54:09.952Z,101510.22
2022-11-29T09:59:17.993Z,101511.31
2022-11-29T10:04:25.967Z,101520.16
2022-11-29T10:09:34.655Z,101509.47
2022-11-29T10:14:43.719Z,101513.91
2022-11-29T10:19:51.739Z,101516.34
2022-11-29T10:25:02.003Z,101514.66
2022-11-29T10:30:06.429Z,101508.75
2022-11-29T10:35:14.579Z,101520.25
2022-11-29T10:40:24.004Z,101519.97
2022-11-29T10:45:34.947Z,101529.97
2022-11-29T10:50:38.512Z,101527.63
2022-11-29T10:55:53.162Z,101524.56
2022-11-29T11:00:59.366Z,101518.88
2022-11-29T11:06:07.374Z,101517.69
2022-11-29T11:11:12.642Z,101508.25
2022-11-29T11:16:18.909Z,101514.00
2022-11-29T11:21:25.507Z,101514.47
2022-11-29T11:26:43.018Z,101519.63
2022-11-29T11:31:53.285Z,101518.28
2022-11-29T11:37:19.071Z,101526.91
2022-11-29T11:42:39.263Z,101525.28
2022-11-29T11:47:45.590Z,101526.53
2022-11-29T11:52:53.327Z,101528.34
2022-11-29T11:58:09.929Z,101528.78
2022-11-29T12:03:38.080Z,101528.91
2022-11-29T12:08:41.063Z,101535.59
2022-11-29T12:13:50.152Z,101542.13
2022-11-29T12:18:58.322Z,101548.63
2022-11-29T12:24:07.076Z,101543.50
2022-11-29T12:29:15.380Z,101547.69
2022-11-29T12:34:32.565Z,101549.81
2022-11-29T12:39:50.636Z,101554.47
2022-11-29T12:45:02.316Z,101556.47
2022-11-29T12:50:20.432Z,101561.91
2022-11-29T12:55:27.228Z,101566.16
2022-11-29T13:00:36.832Z,101566.28
2022-11-29T13:05:56.957Z,101567.34
2022-11-29T13:11:08.176Z,101572.97
2022-11-29T13:16:31.848Z,101571.75
2022-11-29T13:21:41.245Z,101579.00
2022-11-29T13:26:45.737Z,101570.97
2022-11-29T13:31:50.732Z,101579.19
2022-11-29T13:37:05.882Z,101584.13
2022-11-29T13:42:16.361Z,101581.06
2022-11-29T13:47:21.342Z,101586.19
2022-11-29T13:52:39.072Z,101584.50
2022-11-29T13:58:15.043Z,101588.00
2022-11-29T14:03:31.411Z,101590.06
2022-11-29T14:09:10.334Z,101598.53
2022-11-29T14:14:04.620Z,101592.88
2022-11-29T14:19:22.000Z,101599.13
2022-11-29T14:24:40.881Z,101594.56
2022-11-29T14:29:54.951Z,101605.00
2022-11-29T14:35:09.232Z,101612.84
2022-11-29T14:40:29.710Z,101611.59
2022-11-29T14:45:35.064Z,101614.00
2022-11-29T14:50:43.804Z,101611.13
2022-11-29T14:55:48.290Z,101616.81
2022-11-29T15:01:10.657Z,101613.94
2022-11-29T15:06:36.942Z,101606.56
2022-11-29T15:11:51.458Z,101613.38
2022-11-29T15:17:05.782Z,101614.22
2022-11-29T15:22:16.766Z,101613.50
2022-11-29T15:27:20.093Z,101617.44
2022-11-29T15:32:26.676Z,101621.81
2022-11-29T15:37:44.917Z,101631.47
2022-11-29T15:42:52.698Z,101637.94
2022-11-29T15:47:56.187Z,101645.31
2022-11-29T15:53:04.383Z,101650.66
2022-11-29T15:58:09.008Z,101660.72
2022-11-29T16:03:21.208Z,101659.81
2022-11-29T16:08:27.508Z,101674.00
2022-11-29T16:13:36.920Z,101671.34
2022-11-29T16:18:42.716Z,101668.94
2022-11-29T16:23:46.957Z,101678.38
2022-11-29T16:28:54.517Z,101671.94
2022-11-29T16:33:57.779Z,101682.25
2022-11-29T16:39:06.561Z,101677.66
2022-11-29T16:44:48.253Z,101688.84
2022-11-29T16:50:13.254Z,101691.88
2022-11-29T16:55:18.816Z,101699.47
2022-11-29T17:00:30.974Z,101706.25
2022-11-29T17:05:33.866Z,101707.91
2022-11-29T17:10:38.036Z,101713.66
2022-11-29T17:15:40.908Z,101713.56
2022-11-29T17:20:46.697Z,101711.19
2022-11-29T17:25:58.353Z,101718.78
2022-11-29T17:31:09.352Z,101720.09
2022-11-29T17:36:15.397Z,101723.31
2022-11-29T17:41:22.536Z,101731.69
2022-11-29T17:46:27.166Z,101735.56
2022-11-29T17:56:58.686Z,101742.44
2022-11-29T18:02:03.856Z,101748.41
2022-11-29T18:07:06.749Z,101751.47
2022-11-29T18:12:10.887Z,101757.19
2022-11-29T18:17:13.813Z,101765.53
2022-11-29T18:22:18.818Z,101764.97
2022-11-29T18:27:23.198Z,101772.25
2022-11-29T18:32:27.444Z,101785.66
2022-11-29T18:38:05.007Z,101785.41
2022-11-29T18:42:54.923Z,101786.25
2022-11-29T18:47:57.760Z,101782.34
2022-11-29T18:53:00.713Z,101787.16
2022-11-29T18:58:06.585Z,101783.38
2022-11-29T19:03:11.556Z,101783.09
2022-11-29T19:08:17.310Z,101789.91
2022-11-29T19:13:21.440Z,101790.06
2022-11-29T19:18:24.394Z,101794.69
2022-11-29T19:23:27.311Z,101781.56
2022-11-29T19:28:32.404Z,101783.81
2022-11-29T19:33:36.704Z,101788.94
2022-11-29T19:38:40.947Z,101788.38
2022-11-29T19:43:51.464Z,101789.38
2022-11-29T19:48:55.363Z,101795.41
2022-11-29T19:54:03.129Z,101793.28
2022-11-29T19:59:08.633Z,101796.59
2022-11-29T20:04:13.545Z,101803.34
2022-11-29T20:09:19.320Z,101797.16
2022-11-29T20:14:28.742Z,101799.47
2022-11-29T20:19:32.021Z,101797.06
2022-11-29T20:31:21.339Z,101819.75
2022-11-29T20:36:35.668Z,101819.16
2022-11-29T20:41:46.617Z,101821.25
2022-11-29T20:46:54.955Z,101820.69
2022-11-29T20:52:08.505Z,101829.03
2022-11-29T20:57:11.620Z,101822.47
2022-11-29T21:02:17.091Z,101823.34
2022-11-29T21:07:22.295Z,101824.75
2022-11-29T21:12:25.996Z,101824.75
2022-11-29T21:17:34.058Z,101819.03
2022-11-29T21:23:35.089Z,101827.28
2022-11-29T21:28:48.582Z,101836.72
2022-11-29T21:34:31.583Z,101831.59
2022-11-29T21:45:54.573Z,101833.50
2022-11-29T21:51:30.209Z,101827.69
2022-11-29T21:56:51.421Z,101850.13
2022-11-29T22:01:57.307Z,101849.53
2022-11-29T22:07:01.735Z,101854.25
2022-11-29T22:12:25.790Z,101856.75
2022-11-29T22:17:29.939Z,101860.47
2022-11-29T22:22:34.140Z,101858.91
2022-11-29T22:27:37.513Z,101860.28
2022-11-29T22:32:42.429Z,101862.78
2022-11-29T22:37:46.530Z,101866.22
2022-11-29T22:42:51.674Z,101864.75
2022-11-29T22:47:59.396Z,101870.63
2022-11-29T22:53:03.574Z,101863.25
2022-11-29T22:58:06.363Z,101869.59
2022-11-29T23:03:09.220Z,101869.84
2022-11-29T23:08:14.093Z,101888.00
2022-11-29T23:13:16.820Z,101892.00
2022-11-29T23:18:22.642Z,101882.41
2022-11-29T23:23:27.053Z,101877.41
2022-11-29T23:28:30.199Z,101883.81
2022-11-29T23:33:33.065Z,101887.06
2022-11-29T23:38:39.011Z,101884.56
2022-11-29T23:43:42.720Z,101887.19
2022-11-29T23:48:45.976Z,101880.91
2022-11-29T23:53:53.512Z,101880.25
2022-11-29T23:58:56.346Z,101876.88
